createdAt,value
2019-05-03T00:02:03.198Z,17.10
2019-05-03T00:04:31.770Z,17.00
2019-05-03T00:07:00.250Z,16.90
2019-05-03T00:09:28.733Z,16.80
2019-05-03T00:11:57.281Z,16.80
2019-05-03T00:14:26.003Z,16.80
2019-05-03T00:16:54.556Z,16.70
2019-05-03T00:19:23.086Z,16.70
2019-05-03T00:21:52.606Z,16.70
2019-05-03T00:24:22.580Z,16.70
2019-05-03T00:26:51.622Z,16.70
2019-05-03T00:29:21.882Z,16.70
2019-05-03T00:31:51.661Z,16.70
2019-05-03T00:34:22.043Z,16.70
2019-05-03T00:36:54.848Z,16.70
2019-05-03T00:39:32.488Z,16.70
2019-05-03T00:42:02.723Z,16.70
2019-05-03T00:44:31.713Z,16.70
2019-05-03T00:47:02.120Z,16.70
2019-05-03T00:49:32.063Z,16.70
2019-05-03T00:52:02.362Z,16.70
2019-05-03T00:54:31.651Z,16.70
2019-05-03T00:57:02.539Z,16.70
2019-05-03T00:59:32.502Z,16.70
2019-05-03T01:02:02.729Z,16.80
2019-05-03T01:04:31.781Z,16.80
2019-05-03T01:07:02.192Z,16.90
2019-05-03T01:09:31.727Z,16.90
2019-05-03T01:12:01.967Z,16.90
2019-05-03T01:14:31.691Z,17.00
2019-05-03T01:17:02.494Z,17.00
2019-05-03T01:19:32.053Z,17.00
2019-05-03T01:22:01.976Z,17.00
2019-05-03T01:24:32.278Z,17.00
2019-05-03T01:27:01.962Z,17.00
2019-05-03T01:29:32.213Z,17.00
2019-05-03T01:32:02.383Z,17.00
2019-05-03T01:34:32.601Z,17.00
2019-05-03T01:37:02.600Z,17.00
2019-05-03T01:39:31.732Z,17.00
2019-05-03T01:42:02.466Z,17.00
2019-05-03T01:44:32.510Z,16.90
2019-05-03T01:47:02.398Z,16.90
2019-05-03T01:49:32.638Z,16.90
2019-05-03T01:52:08.740Z,16.90
2019-05-03T01:54:37.295Z,16.90
2019-05-03T01:57:05.841Z,16.90
2019-05-03T01:59:34.393Z,16.90
2019-05-03T02:02:07.265Z,16.90
2019-05-03T02:04:36.406Z,16.90
2019-05-03T02:07:05.081Z,16.90
2019-05-03T02:09:33.569Z,16.90
2019-05-03T02:12:02.235Z,16.90
2019-05-03T02:14:31.722Z,16.90
2019-05-03T02:17:01.787Z,16.90
2019-05-03T02:19:32.551Z,16.80
2019-05-03T02:22:02.715Z,16.80
2019-05-03T02:24:32.593Z,16.70
2019-05-03T02:27:02.145Z,16.60
2019-05-03T02:29:32.617Z,16.50
2019-05-03T02:32:03.220Z,16.40
2019-05-03T02:34:32.662Z,16.30
2019-05-03T02:37:03.104Z,16.20
2019-05-03T02:39:33.476Z,16.20
2019-05-03T02:42:07.915Z,16.10
2019-05-03T02:44:35.403Z,16.00
2019-05-03T02:47:05.559Z,15.90
2019-05-03T02:49:35.938Z,15.90
2019-05-03T02:52:06.670Z,15.80
2019-05-03T02:54:35.261Z,15.70
2019-05-03T02:57:06.282Z,15.70
2019-05-03T02:59:34.698Z,15.60
2019-05-03T03:02:06.139Z,15.60
2019-05-03T03:04:56.161Z,15.60
2019-05-03T03:07:25.818Z,15.60
2019-05-03T03:09:55.904Z,15.70
2019-05-03T03:12:26.531Z,15.60
2019-05-03T03:14:56.616Z,15.60
2019-05-03T03:17:27.167Z,15.60
2019-05-03T03:19:57.263Z,15.60
2019-05-03T03:22:26.763Z,15.50
2019-05-03T03:24:58.651Z,15.50
2019-05-03T03:27:30.259Z,15.50
2019-05-03T03:30:09.660Z,15.60
2019-05-03T03:32:40.689Z,15.50
2019-05-03T03:35:13.391Z,15.60
2019-05-03T03:37:42.735Z,15.50
2019-05-03T03:40:12.468Z,15.50
2019-05-03T03:42:42.142Z,15.50
2019-05-03T03:45:11.192Z,15.50
2019-05-03T03:47:40.121Z,15.50
2019-05-03T03:50:09.119Z,15.40
2019-05-03T03:52:40.172Z,15.40
2019-05-03T03:55:11.472Z,15.40
2019-05-03T03:57:40.108Z,15.40
2019-05-03T04:00:09.102Z,15.30
2019-05-03T04:02:38.991Z,15.40
2019-05-03T04:05:09.091Z,15.30
2019-05-03T04:07:38.587Z,15.30
2019-05-03T04:10:08.380Z,15.30
2019-05-03T04:12:38.079Z,15.30
2019-05-03T04:15:16.035Z,15.30
2019-05-03T04:17:52.336Z,15.30
2019-05-03T04:20:25.397Z,15.30
2019-05-03T04:22:55.818Z,15.30
2019-05-03T04:25:26.313Z,15.30
2019-05-03T04:27:56.045Z,15.30
2019-05-03T04:30:25.829Z,15.30
2019-05-03T04:32:56.482Z,15.30
2019-05-03T04:35:26.633Z,15.30
2019-05-03T04:37:55.854Z,15.30
2019-05-03T04:40:26.034Z,15.30
2019-05-03T04:42:55.736Z,15.30
2019-05-03T04:45:25.551Z,15.30
2019-05-03T04:47:55.995Z,15.30
2019-05-03T04:50:25.517Z,15.30
2019-05-03T04:52:56.662Z,15.30
2019-05-03T04:55:26.648Z,15.30
2019-05-03T04:57:56.104Z,15.30
2019-05-03T05:00:25.851Z,15.30
2019-05-03T05:02:55.279Z,15.30
2019-05-03T05:05:26.073Z,15.40
2019-05-03T05:07:55.794Z,15.40
2019-05-03T05:10:26.129Z,15.40
2019-05-03T05:13:05.932Z,15.40
2019-05-03T05:15:35.659Z,15.40
2019-05-03T05:18:06.567Z,15.50
2019-05-03T05:20:45.775Z,15.50
2019-05-03T05:23:14.858Z,15.50
2019-05-03T05:25:45.307Z,15.50
2019-05-03T05:28:18.376Z,15.50
2019-05-03T05:30:46.905Z,15.50
2019-05-03T05:33:21.103Z,15.50
2019-05-03T05:35:54.672Z,15.50
2019-05-03T05:38:25.320Z,15.50
2019-05-03T05:40:55.337Z,15.50
2019-05-03T05:43:25.484Z,15.50
2019-05-03T05:45:55.645Z,15.50
2019-05-03T05:48:29.168Z,15.50
2019-05-03T05:50:57.615Z,15.50
2019-05-03T05:53:26.127Z,15.50
2019-05-03T05:56:12.681Z,15.50
2019-05-03T05:58:48.871Z,15.50
2019-05-03T06:01:18.972Z,15.60
2019-05-03T06:03:47.614Z,15.60
2019-05-03T06:06:20.759Z,15.70
2019-05-03T06:08:54.750Z,15.70
2019-05-03T06:11:28.009Z,15.70
2019-05-03T06:13:58.571Z,15.80
2019-05-03T06:16:37.391Z,15.80
2019-05-03T06:19:10.289Z,15.90
2019-05-03T06:21:56.460Z,15.90
2019-05-03T06:24:32.463Z,15.90
2019-05-03T06:27:15.306Z,15.80
2019-05-03T06:29:45.447Z,15.90
2019-05-03T06:32:21.539Z,15.90
2019-05-03T06:34:50.332Z,15.90
2019-05-03T06:37:20.497Z,15.90
2019-05-03T06:39:49.135Z,15.90
2019-05-03T06:42:19.785Z,16.00
2019-05-03T06:44:47.938Z,16.00
2019-05-03T06:47:16.408Z,16.10
2019-05-03T06:49:48.335Z,16.10
2019-05-03T06:52:19.574Z,16.20
2019-05-03T06:54:45.291Z,16.30
2019-05-03T06:57:15.398Z,16.30
2019-05-03T06:59:45.527Z,16.50
2019-05-03T07:02:21.686Z,16.60
2019-05-03T07:04:51.895Z,16.70
2019-05-03T07:07:37.934Z,16.90
2019-05-03T07:10:08.775Z,17.00
2019-05-03T07:12:55.166Z,17.20
2019-05-03T07:15:25.237Z,17.30
2019-05-03T07:17:55.612Z,17.20
2019-05-03T07:20:25.500Z,17.20
2019-05-03T07:22:55.871Z,17.20
2019-05-03T07:25:25.570Z,17.20
2019-05-03T07:27:55.493Z,17.30
2019-05-03T07:30:24.880Z,17.30
2019-05-03T07:32:55.690Z,17.20
2019-05-03T07:35:25.171Z,17.20
2019-05-03T07:37:55.307Z,17.20
2019-05-03T07:40:25.241Z,17.10
2019-05-03T07:42:55.490Z,17.00
2019-05-03T07:45:25.463Z,16.90
2019-05-03T07:47:55.773Z,16.90
2019-05-03T07:50:25.921Z,16.90
2019-05-03T07:52:55.619Z,17.00
2019-05-03T07:55:42.963Z,17.20
2019-05-03T07:58:15.054Z,17.40
2019-05-03T08:00:44.583Z,17.50
2019-05-03T08:03:15.293Z,17.60
2019-05-03T08:05:45.425Z,17.60
2019-05-03T08:08:14.991Z,17.60
2019-05-03T08:10:44.929Z,17.50
2019-05-03T08:13:15.119Z,17.50
2019-05-03T08:15:45.168Z,17.40
2019-05-03T08:18:15.293Z,17.30
2019-05-03T08:20:45.140Z,17.20
2019-05-03T08:23:26.334Z,17.10
2019-05-03T08:25:44.629Z,17.00
2019-05-03T08:28:14.575Z,16.90
2019-05-03T08:30:51.122Z,16.90
2019-05-03T08:33:21.251Z,16.80
2019-05-03T08:35:51.052Z,16.80
2019-05-03T08:38:19.544Z,16.80
2019-05-03T08:40:48.571Z,16.70
2019-05-03T08:43:17.055Z,16.80
2019-05-03T08:45:45.592Z,16.90
2019-05-03T08:48:15.075Z,17.10
2019-05-03T08:50:45.107Z,17.30
2019-05-03T08:53:15.303Z,17.60
2019-05-03T08:55:44.986Z,17.90
2019-05-03T08:58:15.465Z,18.20
2019-05-03T09:00:45.418Z,18.40
2019-05-03T09:03:14.464Z,18.60
2019-05-03T09:05:45.324Z,18.70
2019-05-03T09:08:15.550Z,18.80
2019-05-03T09:10:45.960Z,18.90
2019-05-03T09:13:16.553Z,18.90
2019-05-03T09:15:46.685Z,18.90
2019-05-03T09:18:17.455Z,18.90
2019-05-03T09:20:45.432Z,19.00
2019-05-03T09:23:14.872Z,19.00
2019-05-03T09:25:45.664Z,19.30
2019-05-03T09:28:15.050Z,19.70
2019-05-03T09:30:44.746Z,20.30
2019-05-03T09:33:15.372Z,20.90
2019-05-03T09:35:45.702Z,21.40
2019-05-03T09:38:15.023Z,21.70
2019-05-03T09:40:45.365Z,21.90
2019-05-03T09:43:15.044Z,22.10
2019-05-03T09:45:45.724Z,22.30
2019-05-03T09:48:15.030Z,22.40
2019-05-03T09:50:45.188Z,22.50
2019-05-03T09:53:15.716Z,22.50
2019-05-03T09:55:47.075Z,22.50
2019-05-03T09:58:15.637Z,22.40
2019-05-03T10:00:44.611Z,22.30
2019-05-03T10:03:13.327Z,22.20
2019-05-03T10:05:41.859Z,22.10
2019-05-03T10:08:10.410Z,22.00
2019-05-03T10:10:57.006Z,21.90
2019-05-03T10:13:27.019Z,21.70
2019-05-03T10:15:56.011Z,21.50
2019-05-03T10:18:25.426Z,21.30
2019-05-03T10:20:56.178Z,21.10
2019-05-03T10:23:26.397Z,20.90
2019-05-03T10:25:55.261Z,20.70
2019-05-03T10:28:25.100Z,20.70
2019-05-03T10:30:54.761Z,20.70
2019-05-03T10:33:25.998Z,20.70
2019-05-03T10:35:54.832Z,20.70
2019-05-03T10:38:24.633Z,20.70
2019-05-03T10:40:54.979Z,20.90
2019-05-03T10:43:24.819Z,21.40
2019-05-03T10:45:55.661Z,21.60
2019-05-03T10:48:24.804Z,21.90
2019-05-03T10:50:53.718Z,22.20
2019-05-03T10:53:28.704Z,22.30
2019-05-03T10:56:22.751Z,22.30
2019-05-03T10:58:56.587Z,22.30
2019-05-03T11:01:29.501Z,22.30
2019-05-03T11:03:58.003Z,22.20
2019-05-03T11:06:26.463Z,22.10
2019-05-03T11:08:55.122Z,22.10
2019-05-03T11:11:25.759Z,22.10
2019-05-03T11:13:53.810Z,22.00
2019-05-03T11:16:22.332Z,21.90
2019-05-03T11:18:50.816Z,21.80
2019-05-03T11:21:28.179Z,21.80
2019-05-03T11:23:49.539Z,21.70
2019-05-03T11:26:19.327Z,21.50
2019-05-03T11:28:47.942Z,21.30
2019-05-03T11:31:35.383Z,21.10
2019-05-03T11:34:05.662Z,20.90
2019-05-03T11:36:41.703Z,20.60
2019-05-03T11:39:10.182Z,20.40
2019-05-03T11:41:40.460Z,20.20
2019-05-03T11:44:26.963Z,20.00
2019-05-03T11:46:55.470Z,19.90
2019-05-03T11:49:25.478Z,19.70
2019-05-03T11:51:55.660Z,19.80
2019-05-03T11:54:25.027Z,20.00
2019-05-03T11:56:55.472Z,20.30
2019-05-03T11:59:25.551Z,20.60
2019-05-03T12:02:04.843Z,20.70
2019-05-03T12:04:35.397Z,20.80
2019-05-03T12:07:05.956Z,20.80
2019-05-03T12:09:34.352Z,20.80
2019-05-03T12:12:04.772Z,20.80
2019-05-03T12:14:34.627Z,20.80
2019-05-03T12:17:17.827Z,20.80
2019-05-03T12:19:38.796Z,20.80
2019-05-03T12:22:08.303Z,20.70
2019-05-03T12:24:37.902Z,20.70
2019-05-03T12:27:06.949Z,20.70
2019-05-03T12:29:35.551Z,20.70
2019-05-03T12:32:05.282Z,20.70
2019-05-03T12:34:35.158Z,20.70
2019-05-03T12:37:05.195Z,20.60
2019-05-03T12:39:35.744Z,20.60
2019-05-03T12:42:05.904Z,20.50
2019-05-03T12:44:35.418Z,20.50
2019-05-03T12:47:05.970Z,20.60
2019-05-03T12:49:35.874Z,20.90
2019-05-03T12:52:05.493Z,21.20
2019-05-03T12:54:35.546Z,21.70
2019-05-03T12:57:05.202Z,22.20
2019-05-03T12:59:35.953Z,22.80
2019-05-03T13:02:24.727Z,23.10
2019-05-03T13:04:53.040Z,23.40
2019-05-03T13:07:25.646Z,23.80
2019-05-03T13:09:54.535Z,24.10
2019-05-03T13:12:25.357Z,24.40
2019-05-03T13:14:53.952Z,24.60
2019-05-03T13:17:36.091Z,24.70
2019-05-03T13:20:13.599Z,24.50
2019-05-03T13:22:42.267Z,24.30
2019-05-03T13:25:15.510Z,23.70
2019-05-03T13:27:46.158Z,23.30
2019-05-03T13:30:16.280Z,23.20
2019-05-03T13:32:45.703Z,22.90
2019-05-03T13:35:15.042Z,22.90
2019-05-03T13:37:45.247Z,22.70
2019-05-03T13:40:14.136Z,22.70
2019-05-03T13:42:54.289Z,22.70
2019-05-03T13:45:12.899Z,22.80
2019-05-03T13:47:41.456Z,22.80
2019-05-03T13:50:10.370Z,22.90
2019-05-03T13:52:38.874Z,22.90
2019-05-03T13:55:07.946Z,22.90
2019-05-03T13:57:36.496Z,22.90
2019-05-03T14:00:06.597Z,22.70
2019-05-03T14:02:35.862Z,22.50
2019-05-03T14:05:06.642Z,22.30
2019-05-03T14:07:35.444Z,22.00
2019-05-03T14:10:09.125Z,21.70
2019-05-03T14:12:37.909Z,21.50
2019-05-03T14:15:07.217Z,21.30
2019-05-03T14:17:35.931Z,21.00
2019-05-03T14:20:17.870Z,21.00
2019-05-03T14:22:51.174Z,21.00
2019-05-03T14:25:19.631Z,21.30
2019-05-03T14:27:48.121Z,21.60
2019-05-03T14:30:17.347Z,22.00
2019-05-03T14:32:45.827Z,22.50
2019-05-03T14:35:16.236Z,22.90
2019-05-03T14:37:45.926Z,23.40
2019-05-03T14:40:15.973Z,23.50
2019-05-03T14:42:44.770Z,23.40
2019-05-03T14:45:15.114Z,23.10
2019-05-03T14:47:43.933Z,23.00
2019-05-03T14:50:14.778Z,23.00
2019-05-03T14:52:45.299Z,22.90
2019-05-03T14:55:15.051Z,22.90
2019-05-03T14:57:45.287Z,22.90
2019-05-03T15:00:18.747Z,22.90
2019-05-03T15:02:51.119Z,22.80
2019-05-03T15:05:19.271Z,22.50
2019-05-03T15:07:47.727Z,22.30
2019-05-03T15:10:16.416Z,22.10
2019-05-03T15:12:45.331Z,21.80
2019-05-03T15:15:14.752Z,21.60
2019-05-03T15:17:45.544Z,21.40
2019-05-03T15:20:14.760Z,21.20
2019-05-03T15:22:45.403Z,21.10
2019-05-03T15:25:14.159Z,21.00
2019-05-03T15:27:44.665Z,20.70
2019-05-03T15:30:15.575Z,20.40
2019-05-03T15:32:56.797Z,20.30
2019-05-03T15:35:15.893Z,20.20
2019-05-03T15:37:45.300Z,20.20
2019-05-03T15:40:15.701Z,20.20
2019-05-03T15:42:46.034Z,20.20
2019-05-03T15:45:34.493Z,20.10
2019-05-03T15:48:10.482Z,20.20
2019-05-03T15:50:39.036Z,20.10
2019-05-03T15:53:07.567Z,20.10
2019-05-03T15:55:36.120Z,20.10
2019-05-03T15:58:04.812Z,20.10
2019-05-03T16:00:33.430Z,20.10
2019-05-03T16:03:08.128Z,20.10
2019-05-03T16:05:32.267Z,20.10
2019-05-03T16:08:00.869Z,20.20
2019-05-03T16:10:29.363Z,20.20
2019-05-03T16:12:57.838Z,20.20
2019-05-03T16:15:26.324Z,20.20
2019-05-03T16:17:54.909Z,20.00
2019-05-03T16:20:25.159Z,20.00
2019-05-03T16:22:54.409Z,19.80
2019-05-03T16:25:25.093Z,19.70
2019-05-03T16:28:01.519Z,19.70
2019-05-03T16:30:36.415Z,19.60
2019-05-03T16:33:04.769Z,19.50
2019-05-03T16:35:35.356Z,19.40
2019-05-03T16:38:03.651Z,19.40
2019-05-03T16:40:32.228Z,19.40
2019-05-03T16:43:01.527Z,19.40
2019-05-03T16:45:30.001Z,19.40
2019-05-03T16:47:58.618Z,19.40
2019-05-03T16:50:27.460Z,19.40
2019-05-03T16:52:55.938Z,19.40
2019-05-03T16:55:25.678Z,19.40
2019-05-03T16:57:54.938Z,19.50
2019-05-03T17:00:24.988Z,19.50
2019-05-03T17:02:55.119Z,19.50
2019-05-03T17:05:28.158Z,19.50
2019-05-03T17:08:00.982Z,19.40
2019-05-03T17:10:39.742Z,19.40
2019-05-03T17:13:08.230Z,19.40
2019-05-03T17:15:36.686Z,19.30
2019-05-03T17:18:05.182Z,19.30
2019-05-03T17:20:34.825Z,19.30
2019-05-03T17:23:04.511Z,19.30
2019-05-03T17:25:35.128Z,19.30
2019-05-03T17:28:04.991Z,19.30
2019-05-03T17:30:37.227Z,19.30
2019-05-03T17:33:04.582Z,19.30
2019-05-03T17:35:34.609Z,19.30
2019-05-03T17:38:05.200Z,19.20
2019-05-03T17:40:51.748Z,19.20
2019-05-03T17:43:21.940Z,19.10
2019-05-03T17:45:58.038Z,19.00
2019-05-03T17:48:26.515Z,19.00
2019-05-03T17:50:55.176Z,18.90
2019-05-03T17:53:28.441Z,18.90
2019-05-03T17:55:58.675Z,18.80
2019-05-03T17:58:44.399Z,18.70
2019-05-03T18:01:35.090Z,18.70
2019-05-03T18:04:09.053Z,18.60
2019-05-03T18:06:39.715Z,18.50
2019-05-03T18:09:10.687Z,18.40
2019-05-03T18:11:40.792Z,18.40
2019-05-03T18:14:09.282Z,18.40
2019-05-03T18:16:37.767Z,18.40
2019-05-03T18:19:06.388Z,18.40
2019-05-03T18:21:35.140Z,18.40
2019-05-03T18:24:04.933Z,18.40
2019-05-03T18:26:35.507Z,18.40
2019-05-03T18:29:05.774Z,18.40
2019-05-03T18:31:34.392Z,18.40
2019-05-03T18:34:05.035Z,18.40
2019-05-03T18:36:34.626Z,18.40
2019-05-03T18:39:05.503Z,18.40
2019-05-03T18:41:34.665Z,18.40
2019-05-03T18:44:10.419Z,18.40
2019-05-03T18:46:49.552Z,18.30
2019-05-03T18:49:18.043Z,18.30
2019-05-03T18:51:46.571Z,18.30
2019-05-03T18:54:15.646Z,18.30
2019-05-03T18:56:44.285Z,18.20
2019-05-03T18:59:14.641Z,18.20
2019-05-03T19:01:45.040Z,18.10
2019-05-03T19:04:15.196Z,18.10
2019-05-03T19:06:45.157Z,18.10
2019-05-03T19:09:31.230Z,18.10
2019-05-03T19:12:01.451Z,18.10
2019-05-03T19:14:29.967Z,18.00
2019-05-03T19:17:06.103Z,18.00
2019-05-03T19:19:39.339Z,18.00
2019-05-03T19:22:07.812Z,18.00
2019-05-03T19:24:36.365Z,17.90
2019-05-03T19:27:06.675Z,17.90
2019-05-03T19:29:35.899Z,17.90
2019-05-03T19:32:04.641Z,17.90
2019-05-03T19:34:46.919Z,17.80
2019-05-03T19:37:05.267Z,17.80
2019-05-03T19:39:34.595Z,17.80
2019-05-03T19:42:03.639Z,17.70
2019-05-03T19:44:32.235Z,17.70
2019-05-03T19:47:00.695Z,17.60
2019-05-03T19:49:29.174Z,17.60
2019-05-03T19:51:57.645Z,17.60
2019-05-03T19:54:26.290Z,17.60
2019-05-03T19:56:55.701Z,17.50
2019-05-03T19:59:44.087Z,17.50
2019-05-03T20:02:14.982Z,17.50
2019-05-03T20:05:01.599Z,17.50
2019-05-03T20:07:46.688Z,17.40
2019-05-03T20:10:17.881Z,17.40
2019-05-03T20:12:45.703Z,17.40
2019-05-03T20:15:14.607Z,17.30
2019-05-03T20:17:54.602Z,17.30
2019-05-03T20:20:15.456Z,17.20
2019-05-03T20:22:45.071Z,17.20
2019-05-03T20:25:15.856Z,17.20
2019-05-03T20:27:44.631Z,17.20
2019-05-03T20:30:15.079Z,17.20
2019-05-03T20:32:45.073Z,17.20
2019-05-03T20:35:18.823Z,17.20
2019-05-03T20:37:44.896Z,17.20
2019-05-03T20:40:15.305Z,17.20
2019-05-03T20:43:00.991Z,17.20
2019-05-03T20:45:37.335Z,17.20
2019-05-03T20:48:07.507Z,17.20
2019-05-03T20:50:36.012Z,17.10
2019-05-03T20:53:05.385Z,17.10
2019-05-03T20:55:34.733Z,17.10
2019-05-03T20:58:03.454Z,17.10
2019-05-03T21:00:32.239Z,17.00
2019-05-03T21:03:00.734Z,17.00
2019-05-03T21:05:32.911Z,17.00
2019-05-03T21:07:59.478Z,16.90
2019-05-03T21:10:27.945Z,16.90
2019-05-03T21:12:56.496Z,16.90
2019-05-03T21:15:27.038Z,16.80
2019-05-03T21:17:59.907Z,16.80
2019-05-03T21:20:34.696Z,16.80
2019-05-03T21:23:05.161Z,16.70
2019-05-03T21:25:37.719Z,16.70
2019-05-03T21:28:05.310Z,16.60
2019-05-03T21:30:35.213Z,16.60
2019-05-03T21:33:05.398Z,16.60
2019-05-03T21:35:41.671Z,16.60
2019-05-03T21:38:04.341Z,16.60
2019-05-03T21:40:34.746Z,16.60
2019-05-03T21:43:04.868Z,16.60
2019-05-03T21:45:35.199Z,16.60
2019-05-03T21:48:11.595Z,16.50
2019-05-03T21:50:40.126Z,16.50
2019-05-03T21:53:08.610Z,16.50
2019-05-03T21:55:37.244Z,16.50
2019-05-03T21:58:05.809Z,16.50
2019-05-03T22:00:45.488Z,16.50
2019-05-03T22:03:14.576Z,16.50
2019-05-03T22:05:54.771Z,16.50
2019-05-03T22:08:13.499Z,16.40
2019-05-03T22:10:42.097Z,16.40
2019-05-03T22:13:10.735Z,16.40
2019-05-03T22:15:40.892Z,16.40
2019-05-03T22:18:15.214Z,16.40
2019-05-03T22:20:48.264Z,16.40
2019-05-03T22:23:30.488Z,16.40
2019-05-03T22:25:59.908Z,16.30
2019-05-03T22:28:28.414Z,16.30
2019-05-03T22:30:56.877Z,16.30
2019-05-03T22:33:32.473Z,16.30
2019-05-03T22:36:08.699Z,16.30
2019-05-03T22:38:31.311Z,16.30
2019-05-03T22:40:59.827Z,16.20
2019-05-03T22:43:28.321Z,16.20
2019-05-03T22:45:57.083Z,16.20
2019-05-03T22:48:25.663Z,16.20
2019-05-03T22:50:55.571Z,16.20
2019-05-03T22:53:25.367Z,16.10
2019-05-03T22:55:54.300Z,16.20
2019-05-03T22:58:24.874Z,16.10
2019-05-03T23:00:55.009Z,16.10
2019-05-03T23:03:25.001Z,16.10
2019-05-03T23:05:54.844Z,16.10
2019-05-03T23:08:25.169Z,16.10
2019-05-03T23:10:54.715Z,16.10
2019-05-03T23:13:24.947Z,16.10
2019-05-03T23:15:54.637Z,16.20
2019-05-03T23:18:24.656Z,16.10
2019-05-03T23:21:04.701Z,16.10
2019-05-03T23:23:49.663Z,16.10
2019-05-03T23:26:18.147Z,16.10
2019-05-03T23:28:46.672Z,16.00
2019-05-03T23:31:15.599Z,16.00
2019-05-03T23:33:45.206Z,15.90
2019-05-03T23:36:15.370Z,15.90
2019-05-03T23:38:45.246Z,15.90
2019-05-03T23:41:15.347Z,15.90
2019-05-03T23:43:45.063Z,15.80
2019-05-03T23:46:15.580Z,15.80
2019-05-03T23:48:44.723Z,15.80
2019-05-03T23:51:15.041Z,15.80
2019-05-03T23:53:44.670Z,15.80
2019-05-03T23:56:15.070Z,15.80
2019-05-03T23:58:44.611Z,15.80
